createdAt,value
2019-02-15T00:00:48.895Z,99.99
2019-02-15T00:01:59.171Z,99.99
2019-02-15T00:03:09.183Z,99.99
2019-02-15T00:04:19.210Z,99.99
2019-02-15T00:05:29.432Z,99.99
2019-02-15T00:06:39.547Z,99.99
2019-02-15T00:07:49.038Z,99.99
2019-02-15T00:08:59.040Z,99.99
2019-02-15T00:10:09.070Z,99.99
2019-02-15T00:11:19.527Z,99.99
2019-02-15T00:12:29.652Z,99.99
2019-02-15T00:13:39.713Z,99.99
2019-02-15T00:14:49.738Z,99.99
2019-02-15T00:15:59.768Z,99.99
2019-02-15T00:17:09.515Z,99.99
2019-02-15T00:18:19.516Z,99.99
2019-02-15T00:19:29.620Z,99.99
2019-02-15T00:20:39.627Z,99.99
2019-02-15T00:21:49.871Z,99.99
2019-02-15T00:22:59.915Z,99.99
2019-02-15T00:24:09.923Z,99.99
2019-02-15T00:25:19.677Z,99.99
2019-02-15T00:26:29.434Z,99.99
2019-02-15T00:27:39.459Z,99.99
2019-02-15T00:28:49.565Z,99.99
2019-02-15T00:29:59.603Z,99.99
2019-02-15T00:31:10.088Z,99.99
2019-02-15T00:32:20.111Z,99.99
2019-02-15T00:33:30.147Z,99.99
2019-02-15T00:34:39.911Z,99.99
2019-02-15T00:35:49.692Z,99.99
2019-02-15T00:36:59.704Z,99.99
2019-02-15T00:38:09.705Z,99.99
2019-02-15T00:39:19.462Z,99.99
2019-02-15T00:40:29.721Z,99.99
2019-02-15T00:41:39.719Z,99.99
2019-02-15T00:42:49.745Z,99.99
2019-02-15T00:43:59.506Z,99.99
2019-02-15T00:45:09.495Z,99.99
2019-02-15T00:46:19.723Z,99.99
2019-02-15T00:47:29.886Z,99.99
2019-02-15T00:48:39.872Z,99.99
2019-02-15T00:49:49.639Z,99.99
2019-02-15T00:50:59.135Z,99.99
2019-02-15T00:52:08.886Z,99.99
2019-02-15T00:53:18.903Z,99.99
2019-02-15T00:54:28.934Z,99.99
2019-02-15T00:55:38.692Z,99.99
2019-02-15T00:56:48.441Z,99.99
2019-02-15T00:57:58.415Z,99.99
2019-02-15T00:59:08.168Z,99.99
2019-02-15T01:00:18.230Z,99.99
2019-02-15T01:01:28.281Z,99.99
2019-02-15T01:02:38.271Z,99.99
2019-02-15T01:03:48.075Z,99.99
2019-02-15T01:04:58.072Z,99.99
2019-02-15T01:06:08.174Z,99.99
2019-02-15T01:07:18.232Z,99.99
2019-02-15T01:08:28.221Z,99.99
2019-02-15T01:09:38.319Z,99.99
2019-02-15T01:10:48.337Z,99.99
2019-02-15T01:11:58.188Z,99.99
2019-02-15T01:13:08.558Z,99.99
2019-02-15T01:14:18.614Z,99.99
2019-02-15T01:15:28.697Z,99.99
2019-02-15T01:16:38.831Z,99.99
2019-02-15T01:17:49.220Z,99.99
2019-02-15T01:18:59.306Z,99.99
2019-02-15T01:20:09.359Z,99.99
2019-02-15T01:21:19.406Z,99.99
2019-02-15T01:22:29.476Z,99.99
2019-02-15T01:23:39.559Z,99.99
2019-02-15T01:24:49.617Z,99.99
2019-02-15T01:25:59.666Z,99.99
2019-02-15T01:27:09.704Z,99.99
2019-02-15T01:28:19.343Z,99.99
2019-02-15T01:29:29.410Z,99.99
2019-02-15T01:30:39.523Z,99.99
2019-02-15T01:31:49.572Z,99.99
2019-02-15T01:32:59.696Z,99.99
2019-02-15T01:34:09.764Z,99.99
2019-02-15T01:35:19.622Z,99.99
2019-02-15T01:36:29.918Z,99.99
2019-02-15T01:37:40.019Z,99.99
2019-02-15T01:38:50.071Z,99.99
2019-02-15T01:40:00.356Z,99.99
2019-02-15T01:41:10.182Z,99.99
2019-02-15T01:42:20.525Z,99.99
2019-02-15T01:43:30.598Z,99.99
2019-02-15T01:44:48.045Z,99.99
2019-02-15T01:45:57.878Z,99.99
2019-02-15T01:47:08.080Z,99.99
2019-02-15T01:48:17.898Z,99.99
2019-02-15T01:49:28.057Z,99.99
2019-02-15T01:50:38.409Z,99.99
2019-02-15T01:51:48.479Z,99.99
2019-02-15T01:52:58.818Z,99.99
2019-02-15T01:54:09.108Z,99.99
2019-02-15T01:55:19.195Z,99.99
2019-02-15T01:56:29.260Z,99.99
2019-02-15T01:57:39.081Z,99.99
2019-02-15T01:58:49.147Z,99.99
2019-02-15T01:59:59.254Z,99.99
2019-02-15T02:01:11.065Z,99.99
2019-02-15T02:02:21.227Z,99.99
2019-02-15T02:03:31.533Z,99.99
2019-02-15T02:04:41.595Z,99.99
2019-02-15T02:05:51.756Z,99.99
2019-02-15T02:07:02.253Z,99.99
2019-02-15T02:08:12.338Z,99.99
2019-02-15T02:09:22.502Z,99.99
2019-02-15T02:10:32.422Z,99.99
2019-02-15T02:11:42.495Z,99.99
2019-02-15T02:12:52.557Z,99.99
2019-02-15T02:14:02.362Z,99.99
2019-02-15T02:15:12.430Z,99.99
2019-02-15T02:16:22.744Z,99.99
2019-02-15T02:17:32.571Z,99.99
2019-02-15T02:18:42.682Z,99.99
2019-02-15T02:19:52.537Z,99.99
2019-02-15T02:21:02.708Z,99.99
2019-02-15T02:22:12.592Z,99.99
2019-02-15T02:23:22.689Z,99.99
2019-02-15T02:24:32.805Z,99.99
2019-02-15T02:25:42.978Z,99.99
2019-02-15T02:26:52.791Z,99.99
2019-02-15T02:28:03.644Z,99.99
2019-02-15T02:29:13.687Z,99.99
2019-02-15T02:30:23.799Z,99.99
2019-02-15T02:31:34.020Z,99.99
2019-02-15T02:32:44.163Z,99.99
2019-02-15T02:33:54.277Z,99.99
2019-02-15T02:35:04.138Z,99.99
2019-02-15T02:36:14.198Z,99.99
2019-02-15T02:37:24.302Z,99.99
2019-02-15T02:38:34.397Z,99.99
2019-02-15T02:39:44.529Z,99.99
2019-02-15T02:40:54.628Z,99.99
2019-02-15T02:42:05.103Z,99.99
2019-02-15T02:43:15.215Z,99.99
2019-02-15T02:44:25.501Z,99.99
2019-02-15T02:45:35.607Z,99.99
2019-02-15T02:46:45.678Z,99.99
2019-02-15T02:47:55.550Z,99.99
2019-02-15T02:49:08.370Z,99.99
2019-02-15T02:50:18.539Z,99.99
2019-02-15T02:51:28.828Z,99.99
2019-02-15T02:52:38.860Z,99.99
2019-02-15T02:53:49.170Z,99.99
2019-02-15T02:54:59.280Z,99.99
2019-02-15T02:56:09.630Z,99.99
2019-02-15T02:57:19.432Z,99.99
2019-02-15T02:58:29.248Z,99.99
2019-02-15T02:59:39.335Z,99.99
2019-02-15T03:00:49.462Z,99.99
2019-02-15T03:01:59.529Z,99.99
2019-02-15T03:33:59.151Z,94.27
2019-02-15T03:35:09.267Z,94.65
2019-02-15T03:36:19.477Z,95.41
2019-02-15T03:37:29.578Z,96.26
2019-02-15T03:38:39.379Z,97.59
2019-02-15T03:39:49.266Z,98.35
2019-02-15T03:40:59.343Z,98.44
2019-02-15T03:42:09.417Z,99.39
2019-02-15T03:43:19.483Z,99.39
2019-02-15T03:44:29.554Z,99.99
2019-02-15T03:45:39.635Z,99.99
2019-02-15T03:46:49.768Z,99.99
2019-02-15T03:48:00.326Z,99.99
2019-02-15T03:49:10.423Z,99.99
2019-02-15T03:50:20.510Z,99.99
2019-02-15T03:51:30.331Z,99.99
2019-02-15T03:52:40.647Z,99.99
2019-02-15T03:53:50.771Z,99.99
2019-02-15T03:55:00.856Z,99.99
2019-02-15T03:56:10.926Z,99.99
2019-02-15T03:57:21.036Z,99.99
2019-02-15T03:58:31.519Z,99.99
2019-02-15T03:59:41.612Z,99.99
2019-02-15T04:00:51.910Z,99.99
2019-02-15T04:02:01.973Z,99.99
2019-02-15T04:03:12.157Z,99.99
2019-02-15T04:04:22.252Z,99.99
2019-02-15T04:05:32.327Z,99.99
2019-02-15T04:06:42.390Z,99.99
2019-02-15T04:07:52.666Z,99.99
2019-02-15T04:09:04.570Z,99.99
2019-02-15T04:10:14.652Z,99.99
2019-02-15T04:11:24.199Z,99.99
2019-02-15T04:12:34.867Z,99.99
2019-02-15T04:13:44.946Z,99.99
2019-02-15T04:14:55.072Z,99.99
2019-02-15T04:16:04.704Z,99.99
2019-02-15T04:17:14.794Z,99.99
2019-02-15T04:18:24.872Z,99.99
2019-02-15T04:19:34.701Z,99.99
2019-02-15T04:20:44.831Z,99.99
2019-02-15T04:21:55.207Z,99.99
2019-02-15T04:23:05.277Z,99.99
2019-02-15T04:24:16.083Z,99.99
2019-02-15T04:25:26.382Z,99.99
2019-02-15T04:26:36.494Z,99.99
2019-02-15T04:27:46.676Z,99.99
2019-02-15T04:28:56.760Z,99.99
2019-02-15T04:30:06.841Z,99.99
2019-02-15T04:31:16.948Z,99.99
2019-02-15T04:32:27.050Z,99.99
2019-02-15T04:33:36.902Z,99.99
2019-02-15T04:34:47.215Z,99.99
2019-02-15T04:35:57.272Z,99.99
2019-02-15T04:37:07.633Z,99.99
2019-02-15T04:38:17.755Z,99.99
2019-02-15T04:39:27.836Z,99.99
2019-02-15T04:40:37.927Z,99.99
2019-02-15T04:41:48.067Z,99.99
2019-02-15T04:42:58.115Z,99.99
2019-02-15T04:44:10.620Z,99.99
2019-02-15T04:45:20.899Z,99.99
2019-02-15T04:46:30.983Z,99.99
2019-02-15T04:47:41.063Z,99.99
2019-02-15T04:48:51.204Z,99.99
2019-02-15T04:50:01.493Z,99.99
2019-02-15T04:51:11.605Z,99.99
2019-02-15T04:52:21.454Z,99.99
2019-02-15T04:53:31.759Z,99.99
2019-02-15T04:54:41.862Z,99.99
2019-02-15T04:55:52.185Z,99.99
2019-02-15T04:57:02.243Z,99.99
2019-02-15T04:58:12.053Z,99.99
2019-02-15T04:59:22.220Z,99.99
2019-02-15T05:00:32.284Z,99.99
2019-02-15T05:01:42.183Z,99.99
2019-02-15T05:02:52.476Z,99.99
2019-02-15T05:04:02.717Z,99.99
2019-02-15T05:05:12.539Z,99.99
2019-02-15T05:06:22.600Z,99.99
2019-02-15T05:07:32.721Z,99.99
2019-02-15T05:08:42.929Z,99.99
2019-02-15T05:09:53.244Z,99.99
2019-02-15T05:11:03.462Z,99.99
2019-02-15T05:12:14.023Z,99.99
2019-02-15T05:13:23.845Z,99.99
2019-02-15T05:14:33.397Z,99.99
2019-02-15T05:15:43.629Z,99.99
2019-02-15T05:16:53.434Z,99.99
2019-02-15T05:18:04.605Z,99.99
2019-02-15T05:19:14.454Z,99.99
2019-02-15T05:20:24.282Z,99.99
2019-02-15T05:21:34.434Z,99.99
2019-02-15T05:22:44.529Z,99.99
2019-02-15T05:23:54.716Z,99.99
2019-02-15T05:25:04.812Z,99.99
2019-02-15T05:26:14.903Z,99.99
2019-02-15T05:27:24.716Z,99.99
2019-02-15T05:28:35.067Z,99.99
2019-02-15T05:29:45.170Z,99.99
2019-02-15T05:30:55.023Z,99.99
2019-02-15T05:32:04.847Z,99.99
2019-02-15T05:33:15.037Z,99.99
2019-02-15T05:34:25.207Z,99.99
2019-02-15T05:35:35.254Z,99.99
2019-02-15T05:36:44.807Z,99.99
2019-02-15T05:37:54.942Z,99.99
2019-02-15T05:39:04.758Z,99.99
2019-02-15T05:40:14.843Z,99.99
2019-02-15T05:41:24.947Z,99.99
2019-02-15T05:42:35.002Z,99.99
2019-02-15T05:43:45.080Z,99.99
2019-02-15T05:45:05.685Z,99.99
2019-02-15T05:46:14.977Z,99.99
2019-02-15T05:47:24.886Z,99.99
2019-02-15T05:48:34.948Z,99.99
2019-02-15T05:49:44.778Z,99.99
2019-02-15T05:50:54.922Z,99.99
2019-02-15T05:52:05.349Z,99.99
2019-02-15T05:53:15.464Z,99.99
2019-02-15T05:54:25.589Z,99.99
2019-02-15T05:55:35.394Z,99.99
2019-02-15T05:56:45.213Z,99.99
2019-02-15T05:57:55.034Z,99.99
2019-02-15T05:59:05.420Z,99.99
2019-02-15T06:00:14.742Z,99.99
2019-02-15T06:01:24.826Z,99.99
2019-02-15T06:02:35.069Z,99.99
2019-02-15T06:03:44.877Z,99.99
2019-02-15T06:04:55.044Z,99.99
2019-02-15T06:06:05.628Z,99.99
2019-02-15T06:07:15.440Z,99.99
2019-02-15T06:08:25.767Z,99.99
2019-02-15T06:09:36.730Z,99.99
2019-02-15T06:10:46.944Z,99.99
2019-02-15T06:11:57.165Z,99.99
2019-02-15T06:13:07.286Z,99.99
2019-02-15T06:14:17.333Z,99.99
2019-02-15T06:15:27.400Z,99.99
2019-02-15T06:16:37.493Z,99.99
2019-02-15T06:17:47.793Z,99.99
2019-02-15T06:18:58.084Z,99.99
2019-02-15T06:20:08.475Z,99.99
2019-02-15T06:21:18.642Z,99.99
2019-02-15T06:22:28.500Z,99.99
2019-02-15T06:23:38.555Z,99.99
2019-02-15T06:24:48.716Z,99.99
2019-02-15T06:25:58.780Z,99.97
2019-02-15T06:27:10.670Z,99.77
2019-02-15T06:28:20.244Z,99.99
2019-02-15T06:29:30.389Z,99.99
2019-02-15T06:30:40.472Z,99.99
2019-02-15T06:31:50.047Z,99.99
2019-02-15T06:33:00.095Z,99.87
2019-02-15T06:34:10.182Z,99.68
2019-02-15T06:35:19.983Z,99.97
2019-02-15T06:36:30.055Z,99.87
2019-02-15T06:37:40.122Z,99.77
2019-02-15T06:38:50.547Z,99.77
2019-02-15T06:40:00.661Z,99.99
2019-02-15T06:41:12.385Z,99.87
2019-02-15T06:42:22.707Z,99.58
2019-02-15T06:43:32.527Z,99.97
2019-02-15T06:44:42.624Z,99.99
2019-02-15T06:45:52.703Z,99.99
2019-02-15T06:47:05.581Z,99.99
2019-02-15T06:48:15.649Z,99.99
2019-02-15T06:49:25.737Z,99.99
2019-02-15T06:50:35.538Z,99.99
2019-02-15T06:51:45.607Z,99.99
2019-02-15T06:52:55.667Z,99.99
2019-02-15T06:54:06.744Z,99.99
2019-02-15T06:55:17.109Z,99.44
2019-02-15T06:56:27.194Z,99.44
2019-02-15T06:57:36.741Z,99.54
2019-02-15T06:58:49.291Z,99.44
2019-02-15T06:59:59.607Z,99.26
2019-02-15T07:01:09.911Z,99.54
2019-02-15T07:02:19.711Z,99.54
2019-02-15T07:03:30.028Z,99.64
2019-02-15T07:04:54.737Z,99.64
2019-02-15T07:06:04.538Z,99.69
2019-02-15T07:07:14.345Z,99.69
2019-02-15T07:08:24.518Z,99.69
2019-02-15T07:09:34.590Z,99.69
2019-02-15T07:10:44.679Z,99.5
2019-02-15T07:11:54.780Z,99.69
2019-02-15T07:13:04.841Z,99.21
2019-02-15T07:14:14.976Z,99.88
2019-02-15T07:15:33.383Z,99.5
2019-02-15T07:16:43.395Z,99.78
2019-02-15T07:17:53.469Z,99.21
2019-02-15T07:19:04.737Z,99.3
2019-02-15T07:20:14.789Z,99.36
2019-02-15T07:21:24.842Z,99.11
2019-02-15T07:22:34.855Z,99.45
2019-02-15T07:23:45.145Z,99.45
2019-02-15T07:24:55.188Z,99.64
2019-02-15T07:26:04.999Z,99.74
2019-02-15T07:27:15.301Z,99.93
2019-02-15T07:28:25.193Z,99.93
2019-02-15T07:29:35.327Z,99.45
2019-02-15T07:30:45.456Z,99.74
2019-02-15T07:31:55.934Z,99.74
2019-02-15T07:33:07.163Z,99.84
2019-02-15T07:34:17.035Z,99.74
2019-02-15T07:35:27.323Z,99.36
2019-02-15T07:36:37.116Z,99.74
2019-02-15T07:37:47.377Z,99.64
2019-02-15T07:38:57.520Z,99.74
2019-02-15T07:40:07.591Z,99.64
2019-02-15T07:41:17.716Z,99.99
2019-02-15T07:42:27.804Z,99.99
2019-02-15T07:43:37.440Z,99.99
2019-02-15T07:44:47.512Z,99.99
2019-02-15T07:45:57.357Z,99.99
2019-02-15T07:47:07.418Z,99.99
2019-02-15T07:48:17.255Z,99.99
2019-02-15T07:49:29.382Z,99.99
2019-02-15T07:50:39.225Z,99.99
2019-02-15T07:51:49.525Z,99.64
2019-02-15T07:52:59.344Z,99.64
2019-02-15T07:54:09.406Z,99.64
2019-02-15T07:55:19.492Z,99.64
2019-02-15T07:56:29.303Z,99.74
2019-02-15T07:57:39.373Z,99.74
2019-02-15T07:58:49.654Z,99.84
2019-02-15T08:00:00.603Z,99.64
2019-02-15T08:01:10.420Z,99.64
2019-02-15T08:02:20.280Z,99.74
2019-02-15T08:03:30.324Z,99.64
2019-02-15T08:04:40.154Z,99.88
2019-02-15T08:05:50.317Z,99.6
2019-02-15T08:07:00.408Z,99.79
2019-02-15T08:08:10.473Z,99.6
2019-02-15T08:09:20.523Z,99.6
2019-02-15T08:10:30.601Z,99.41
2019-02-15T08:11:42.474Z,99.5
2019-02-15T08:12:52.538Z,99.41
2019-02-15T08:14:02.856Z,99.5
2019-02-15T08:15:22.481Z,99.6
2019-02-15T08:16:41.306Z,99.6
2019-02-15T08:17:51.822Z,99.69
2019-02-15T08:19:02.239Z,99.22
2019-02-15T08:20:12.390Z,99.5
2019-02-15T08:21:22.564Z,99.6
2019-02-15T08:22:32.639Z,99.55
2019-02-15T08:23:42.705Z,99.74
2019-02-15T08:24:53.266Z,99.55
2019-02-15T08:26:05.694Z,99.65
2019-02-15T08:27:15.857Z,99.74
2019-02-15T08:28:25.935Z,99.65
2019-02-15T08:29:35.996Z,99.93
2019-02-15T08:30:46.066Z,99.65
2019-02-15T08:31:56.206Z,99.46
2019-02-15T08:33:06.012Z,99.36
2019-02-15T08:34:16.065Z,99.55
2019-02-15T08:35:26.128Z,99.46
2019-02-15T08:36:36.209Z,99.6
2019-02-15T08:37:46.017Z,99.51
2019-02-15T08:38:56.084Z,99.41
2019-02-15T08:40:08.485Z,99.41
2019-02-15T08:41:18.603Z,99.03
2019-02-15T08:42:28.396Z,99.13
2019-02-15T08:43:38.211Z,99.32
2019-02-15T08:44:48.280Z,99.32
2019-02-15T08:46:04.139Z,99.27
2019-02-15T08:47:14.277Z,99.27
2019-02-15T08:48:24.589Z,99.46
2019-02-15T08:49:34.470Z,99.37
2019-02-15T08:50:44.332Z,99.08
2019-02-15T08:51:54.135Z,99.27
2019-02-15T08:53:03.439Z,99.18
2019-02-15T08:54:13.272Z,99.08
2019-02-15T08:55:23.346Z,99.18
2019-02-15T08:56:33.664Z,99.41
2019-02-15T08:57:43.762Z,99.18
2019-02-15T08:58:53.828Z,99.32
2019-02-15T09:00:06.236Z,99.41
2019-02-15T09:01:16.295Z,99.41
2019-02-15T09:02:26.390Z,99.41
2019-02-15T09:03:36.531Z,99.51
2019-02-15T09:04:47.044Z,99.41
2019-02-15T09:05:57.334Z,99.32
2019-02-15T09:07:07.399Z,99.22
2019-02-15T09:08:17.462Z,99.41
2019-02-15T09:09:27.544Z,99.13
2019-02-15T09:10:37.829Z,98.94
2019-02-15T09:11:47.805Z,99.41
2019-02-15T09:12:58.112Z,99.41
2019-02-15T09:14:08.696Z,98.65
2019-02-15T09:15:18.794Z,98.99
2019-02-15T09:16:28.854Z,98.99
2019-02-15T09:17:38.942Z,99.46
2019-02-15T09:18:49.028Z,99.46
2019-02-15T09:19:59.125Z,99.37
2019-02-15T09:21:10.135Z,99.27
2019-02-15T09:22:20.191Z,99.46
2019-02-15T09:23:30.288Z,99.66
2019-02-15T09:24:40.532Z,99.99
2019-02-15T09:25:50.589Z,99.66
2019-02-15T09:27:00.450Z,99.37
2019-02-15T09:28:10.521Z,99.46
2019-02-15T09:29:20.589Z,99.37
2019-02-15T09:30:30.734Z,99.56
2019-02-15T09:31:41.001Z,99.75
2019-02-15T09:32:50.808Z,99.99
2019-02-15T09:34:00.958Z,99.99
2019-02-15T09:35:11.046Z,99.99
2019-02-15T09:36:20.871Z,99.95
2019-02-15T09:37:30.939Z,99.71
2019-02-15T09:38:41.120Z,99.42
2019-02-15T09:39:51.213Z,99.52
2019-02-15T09:41:03.955Z,99.52
2019-02-15T09:42:14.037Z,99.42
2019-02-15T09:43:24.111Z,99.52
2019-02-15T09:44:33.927Z,99.61
2019-02-15T09:45:43.991Z,99.52
2019-02-15T09:46:53.825Z,99.32
2019-02-15T09:48:06.030Z,99.42
2019-02-15T09:49:15.844Z,99.42
2019-02-15T09:50:29.574Z,99.37
2019-02-15T09:51:39.461Z,99.47
2019-02-15T09:52:49.580Z,99.66
2019-02-15T09:53:59.942Z,99.28
2019-02-15T09:55:10.575Z,99.08
2019-02-15T09:56:20.875Z,99.08
2019-02-15T09:57:30.953Z,98.9
2019-02-15T09:58:41.262Z,99.18
2019-02-15T09:59:51.328Z,99.04
2019-02-15T10:01:01.385Z,99.23
2019-02-15T10:02:11.469Z,99.23
2019-02-15T10:03:21.533Z,98.94
2019-02-15T10:04:31.886Z,99.23
2019-02-15T10:05:41.957Z,99.14
2019-02-15T10:06:52.037Z,99.23
2019-02-15T10:08:02.205Z,99.43
2019-02-15T10:09:12.555Z,99.62
2019-02-15T10:10:22.836Z,99.52
2019-02-15T10:11:33.004Z,99.62
2019-02-15T10:12:42.855Z,99.71
2019-02-15T10:13:53.508Z,99.33
2019-02-15T10:15:03.684Z,99.43
2019-02-15T10:16:13.955Z,99.52
2019-02-15T10:17:32.780Z,99.33
2019-02-15T10:18:43.437Z,99.52
2019-02-15T10:19:54.302Z,99.52
2019-02-15T10:21:04.399Z,99.43
2019-02-15T10:22:15.164Z,99.52
2019-02-15T10:23:26.941Z,99.14
2019-02-15T10:24:37.684Z,99.62
2019-02-15T10:25:48.232Z,99.71
2019-02-15T10:26:58.757Z,99.66
2019-02-15T10:28:09.825Z,99.66
2019-02-15T10:29:20.692Z,99.76
2019-02-15T10:30:30.845Z,99.66
2019-02-15T10:31:41.158Z,99.66
2019-02-15T10:32:51.487Z,99.57
2019-02-15T10:34:01.567Z,99.48
2019-02-15T10:35:11.428Z,99.38
2019-02-15T10:36:21.541Z,99.66
2019-02-15T10:37:31.673Z,99.57
2019-02-15T10:38:41.740Z,99.57
2019-02-15T10:39:51.803Z,99.57
2019-02-15T10:41:01.886Z,99.57
2019-02-15T10:42:12.050Z,99.57
2019-02-15T10:43:21.905Z,99.76
2019-02-15T10:44:31.949Z,99.43
2019-02-15T10:45:42.049Z,99.62
2019-02-15T10:46:52.128Z,99.52
2019-02-15T10:48:02.021Z,99.62
2019-02-15T10:49:13.730Z,99.81
2019-02-15T10:50:23.808Z,99.71
2019-02-15T10:51:33.862Z,99.33
2019-02-15T10:52:44.181Z,99.43
2019-02-15T10:53:54.334Z,99.71
2019-02-15T10:55:05.207Z,99.52
2019-02-15T10:56:15.310Z,99.81
2019-02-15T10:57:25.393Z,99.62
2019-02-15T10:58:35.459Z,99.62
2019-02-15T10:59:45.836Z,99.62
2019-02-15T11:00:55.898Z,99.71
2019-02-15T11:02:06.184Z,99.57
2019-02-15T11:03:16.256Z,99.76
2019-02-15T11:04:26.398Z,99.76
2019-02-15T11:05:36.448Z,99.76
2019-02-15T11:06:46.505Z,99.86
2019-02-15T11:07:56.537Z,99.57
2019-02-15T11:09:06.615Z,99.76
2019-02-15T11:10:16.700Z,99.38
2019-02-15T11:11:26.771Z,99.48
2019-02-15T11:12:37.078Z,99.48
2019-02-15T11:13:47.171Z,99.48
2019-02-15T11:14:57.289Z,99.67
2019-02-15T11:16:08.279Z,99.86
2019-02-15T11:17:18.084Z,99.76
2019-02-15T11:18:28.160Z,99.86
2019-02-15T11:19:38.261Z,99.38
2019-02-15T11:20:48.089Z,99.76
2019-02-15T11:21:58.155Z,99.67
2019-02-15T11:23:10.917Z,99.76
2019-02-15T11:24:20.743Z,99.81
2019-02-15T11:25:31.035Z,99.52
2019-02-15T11:26:40.877Z,99.81
2019-02-15T11:27:51.678Z,99.72
2019-02-15T11:29:05.592Z,99.72
2019-02-15T11:30:16.060Z,99.81
2019-02-15T11:31:26.388Z,99.62
2019-02-15T11:32:37.371Z,99.91
2019-02-15T11:33:49.774Z,99.72
2019-02-15T11:35:01.413Z,99.81
2019-02-15T11:36:12.574Z,99.52
2019-02-15T11:37:23.431Z,99.91
2019-02-15T11:38:34.057Z,99.72
2019-02-15T11:39:44.787Z,99.72
2019-02-15T11:40:56.622Z,99.81
2019-02-15T11:42:16.774Z,99.81
2019-02-15T11:43:26.967Z,99.81
2019-02-15T11:44:37.296Z,99.81
2019-02-15T11:45:47.502Z,99.81
2019-02-15T11:46:59.353Z,99.72
2019-02-15T11:48:10.341Z,99.72
2019-02-15T11:49:20.415Z,99.91
2019-02-15T11:50:29.735Z,99.91
2019-02-15T11:51:39.589Z,99.91
2019-02-15T11:52:49.658Z,99.81
2019-02-15T11:54:02.678Z,99.81
2019-02-15T11:55:12.501Z,99.99
2019-02-15T11:56:22.357Z,99.81
2019-02-15T11:57:32.176Z,99.91
2019-02-15T11:58:42.061Z,99.81
2019-02-15T11:59:52.131Z,99.72
2019-02-15T12:01:02.311Z,99.91
2019-02-15T12:02:12.716Z,99.77
2019-02-15T12:03:22.971Z,99.72
2019-02-15T12:04:33.069Z,99.87
2019-02-15T12:05:43.137Z,99.77
2019-02-15T12:06:53.223Z,99.96
2019-02-15T12:08:05.850Z,99.87
2019-02-15T12:09:15.959Z,99.96
2019-02-15T12:10:26.792Z,99.87
2019-02-15T12:11:36.941Z,99.87
2019-02-15T12:12:47.025Z,99.67
2019-02-15T12:13:57.314Z,99.96
2019-02-15T12:15:07.676Z,99.77
2019-02-15T12:16:17.738Z,99.87
2019-02-15T12:17:28.055Z,99.87
2019-02-15T12:18:38.138Z,99.67
2019-02-15T12:19:48.197Z,99.96
2019-02-15T12:20:58.024Z,99.96
2019-02-15T12:22:08.113Z,99.87
2019-02-15T12:23:18.195Z,99.87
2019-02-15T12:24:28.288Z,99.67
2019-02-15T12:25:38.130Z,99.77
2019-02-15T12:26:47.980Z,99.87
2019-02-15T12:27:58.063Z,99.77
2019-02-15T12:29:09.427Z,99.87
2019-02-15T12:30:19.687Z,99.91
2019-02-15T12:31:29.872Z,99.77
2019-02-15T12:32:39.418Z,99.91
2019-02-15T12:33:49.437Z,99.63
2019-02-15T12:34:59.531Z,99.96
2019-02-15T12:36:09.690Z,99.99
2019-02-15T12:37:19.786Z,99.99
2019-02-15T12:38:29.910Z,99.99
2019-02-15T12:39:40.021Z,99.99
2019-02-15T12:40:50.537Z,99.43
2019-02-15T12:42:00.607Z,99.72
2019-02-15T12:43:10.976Z,99.72
2019-02-15T12:44:20.924Z,99.91
2019-02-15T12:45:31.049Z,99.91
2019-02-15T12:46:41.167Z,99.99
2019-02-15T12:47:51.048Z,99.72
2019-02-15T12:49:03.280Z,99.63
2019-02-15T12:50:13.612Z,99.72
2019-02-15T12:51:23.686Z,99.91
2019-02-15T12:52:33.751Z,99.99
2019-02-15T12:53:43.911Z,99.99
2019-02-15T12:54:54.437Z,99.99
2019-02-15T12:56:06.828Z,99.99
2019-02-15T12:57:16.906Z,99.99
2019-02-15T12:58:26.772Z,99.99
2019-02-15T12:59:37.604Z,99.99
2019-02-15T13:00:47.711Z,99.99
2019-02-15T13:01:58.688Z,99.99
2019-02-15T13:03:08.756Z,99.99
2019-02-15T13:04:19.073Z,99.99
2019-02-15T13:05:29.224Z,99.99
2019-02-15T13:06:39.332Z,99.99
2019-02-15T13:07:52.289Z,99.99
2019-02-15T13:09:03.990Z,99.99
2019-02-15T13:10:13.842Z,99.99
2019-02-15T13:11:24.071Z,99.99
2019-02-15T13:12:33.904Z,99.99
2019-02-15T13:13:44.076Z,99.99
2019-02-15T13:14:54.188Z,99.99
2019-02-15T13:16:05.713Z,99.99
2019-02-15T13:17:24.141Z,99.99
2019-02-15T13:18:34.270Z,99.99
2019-02-15T13:19:44.602Z,99.99
2019-02-15T13:20:54.756Z,99.99
2019-02-15T13:22:04.623Z,99.99
2019-02-15T13:23:15.057Z,99.99
2019-02-15T13:24:25.154Z,99.99
2019-02-15T13:25:39.392Z,99.99
2019-02-15T13:26:49.200Z,99.99
2019-02-15T13:27:59.287Z,99.99
2019-02-15T13:29:11.137Z,99.99
2019-02-15T13:30:21.279Z,99.99
2019-02-15T13:31:31.627Z,99.99
2019-02-15T13:32:41.710Z,99.99
2019-02-15T13:33:51.535Z,99.99
2019-02-15T13:35:02.831Z,99.99
2019-02-15T13:36:12.658Z,99.99
2019-02-15T13:37:23.036Z,99.99
2019-02-15T13:38:33.370Z,99.99
2019-02-15T13:39:43.224Z,99.99
2019-02-15T13:40:53.341Z,99.99
2019-02-15T13:42:02.909Z,99.99
2019-02-15T13:43:13.026Z,99.99
2019-02-15T13:44:23.318Z,99.99
2019-02-15T13:45:33.419Z,99.99
2019-02-15T13:46:43.947Z,99.99
2019-02-15T13:47:54.142Z,99.99
2019-02-15T13:49:06.283Z,99.99
2019-02-15T13:50:19.339Z,99.99
2019-02-15T13:51:30.174Z,99.99
2019-02-15T13:52:40.329Z,99.99
2019-02-15T13:53:50.617Z,99.99
2019-02-15T13:55:00.711Z,99.99
2019-02-15T13:56:10.566Z,99.99
2019-02-15T13:57:20.669Z,99.99
2019-02-15T13:58:30.826Z,99.99
2019-02-15T13:59:41.577Z,99.99
2019-02-15T14:00:51.894Z,99.99
2019-02-15T14:02:01.744Z,99.99
2019-02-15T14:03:11.847Z,99.99
2019-02-15T14:04:22.191Z,99.99
2019-02-15T14:05:32.097Z,99.99
2019-02-15T14:06:42.236Z,99.99
2019-02-15T14:07:52.401Z,99.99
2019-02-15T14:09:02.272Z,99.99
2019-02-15T14:10:12.511Z,99.99
2019-02-15T14:11:22.940Z,99.99
2019-02-15T14:12:33.062Z,99.99
2019-02-15T14:13:43.146Z,99.99
2019-02-15T14:14:53.389Z,99.99
2019-02-15T14:16:04.786Z,99.99
2019-02-15T14:17:16.950Z,99.99
2019-02-15T14:18:29.013Z,99.99
2019-02-15T14:19:40.128Z,99.99
2019-02-15T14:20:50.234Z,99.99
2019-02-15T14:22:01.398Z,99.99
2019-02-15T14:23:11.218Z,99.99
2019-02-15T14:27:23.167Z,99.99
2019-02-15T14:28:33.291Z,99.99
2019-02-15T14:29:43.129Z,99.99
2019-02-15T14:30:53.397Z,99.99
2019-02-15T14:32:03.590Z,99.99
2019-02-15T14:33:13.866Z,99.99
2019-02-15T14:36:47.224Z,99.99
2019-02-15T14:37:56.778Z,99.99
2019-02-15T14:39:07.888Z,99.99
2019-02-15T14:40:17.976Z,99.99
2019-02-15T14:41:28.075Z,99.99
2019-02-15T14:42:38.172Z,99.99
2019-02-15T14:43:48.043Z,99.99
2019-02-15T14:44:58.397Z,99.99
2019-02-15T14:46:10.134Z,99.99
2019-02-15T14:47:20.198Z,99.99
2019-02-15T14:48:30.286Z,99.99
2019-02-15T14:49:40.108Z,99.99
2019-02-15T14:50:49.988Z,99.99
2019-02-15T14:52:00.072Z,99.99
2019-02-15T14:53:10.182Z,99.99
2019-02-15T14:54:20.276Z,99.99
2019-02-15T14:55:30.589Z,99.99
2019-02-15T14:56:40.679Z,99.99
2019-02-15T14:57:50.766Z,99.99
2019-02-15T14:59:00.862Z,99.99
2019-02-15T15:00:10.940Z,99.99
2019-02-15T15:01:20.741Z,99.99
2019-02-15T15:02:30.833Z,99.99
2019-02-15T15:03:40.888Z,99.99
2019-02-15T15:04:51.019Z,99.99
2019-02-15T15:06:02.473Z,99.99
2019-02-15T15:07:12.298Z,99.99
2019-02-15T15:08:22.179Z,99.99
2019-02-15T15:09:33.725Z,99.99
2019-02-15T15:10:43.829Z,99.99
2019-02-15T15:11:55.408Z,99.99
2019-02-15T15:13:06.464Z,99.99
2019-02-15T15:14:16.526Z,99.99
2019-02-15T15:15:26.654Z,99.99
2019-02-15T15:16:36.719Z,99.99
2019-02-15T15:17:46.804Z,99.99
2019-02-15T15:19:16.224Z,99.99
2019-02-15T15:20:26.351Z,99.99
2019-02-15T15:21:37.563Z,99.99
2019-02-15T15:22:47.637Z,99.99
2019-02-15T15:23:57.715Z,99.99
2019-02-15T15:25:08.050Z,99.99
2019-02-15T15:26:17.877Z,99.99
2019-02-15T15:27:28.208Z,99.99
2019-02-15T15:28:38.047Z,99.99
2019-02-15T15:29:50.307Z,99.99
2019-02-15T15:31:03.184Z,99.99
2019-02-15T15:32:14.288Z,99.99
2019-02-15T15:33:24.399Z,99.99
2019-02-15T15:34:34.508Z,99.99
2019-02-15T15:35:44.564Z,99.99
2019-02-15T15:36:54.642Z,99.99
2019-02-15T15:38:06.265Z,99.99
2019-02-15T15:39:16.322Z,99.99
2019-02-15T15:40:26.416Z,99.99
2019-02-15T15:41:36.493Z,99.99
2019-02-15T15:42:47.366Z,99.99
2019-02-15T15:43:57.457Z,99.99